createdAt,value
2017-04-14T00:01:03.978Z,0
2017-04-14T00:02:14.009Z,0
2017-04-14T00:03:24.356Z,0
2017-04-14T00:04:34.392Z,0
2017-04-14T00:05:44.731Z,0
2017-04-14T00:06:55.058Z,0
2017-04-14T00:08:05.385Z,0
2017-04-14T00:09:15.725Z,0
2017-04-14T00:10:26.066Z,0
2017-04-14T00:11:36.403Z,0
2017-04-14T00:12:46.762Z,0
2017-04-14T00:13:57.104Z,0
2017-04-14T00:15:07.144Z,0
2017-04-14T00:16:16.856Z,0
2017-04-14T00:17:27.203Z,0
2017-04-14T00:18:37.220Z,0
2017-04-14T00:19:46.938Z,0
2017-04-14T00:20:57.517Z,0
2017-04-14T00:22:07.539Z,0
2017-04-14T00:23:17.930Z,0
2017-04-14T00:24:28.259Z,0
2017-04-14T00:25:38.616Z,0
2017-04-14T00:26:48.642Z,0
2017-04-14T00:27:58.674Z,0
2017-04-14T00:29:09.015Z,0
2017-04-14T00:30:18.731Z,0
2017-04-14T00:31:29.065Z,0
2017-04-14T00:32:39.415Z,0
2017-04-14T00:33:49.446Z,0
2017-04-14T00:34:59.787Z,0
2017-04-14T00:36:09.858Z,0
2017-04-14T00:37:20.196Z,0
2017-04-14T00:38:30.229Z,0
2017-04-14T00:39:40.563Z,0
2017-04-14T00:40:50.609Z,0
2017-04-14T00:42:00.640Z,0
2017-04-14T00:43:10.975Z,0
2017-04-14T00:44:21.311Z,0
2017-04-14T00:45:31.648Z,0
2017-04-14T00:46:41.656Z,0
2017-04-14T00:47:51.682Z,0
2017-04-14T00:49:01.716Z,0
2017-04-14T00:50:11.741Z,0
2017-04-14T00:51:21.767Z,0
2017-04-14T00:52:32.119Z,0
2017-04-14T00:53:42.449Z,0
2017-04-14T00:54:52.475Z,0
2017-04-14T00:56:02.519Z,0
2017-04-14T00:57:12.532Z,0
2017-04-14T00:58:22.555Z,0
2017-04-14T00:59:32.903Z,0
2017-04-14T01:00:43.240Z,0
2017-04-14T01:01:53.258Z,0
2017-04-14T01:03:03.283Z,0
2017-04-14T01:04:13.621Z,0
2017-04-14T01:05:23.638Z,0
2017-04-14T01:06:33.666Z,0
2017-04-14T01:07:43.720Z,0
2017-04-14T01:08:54.067Z,0
2017-04-14T01:10:03.820Z,0
2017-04-14T01:11:14.140Z,0
2017-04-14T01:12:24.489Z,0
2017-04-14T01:13:34.511Z,0
2017-04-14T01:14:44.846Z,0
2017-04-14T01:15:54.558Z,0
2017-04-14T01:17:04.876Z,0
2017-04-14T01:18:14.914Z,0
2017-04-14T01:19:25.263Z,0
2017-04-14T01:20:35.583Z,0
2017-04-14T01:21:45.920Z,0
2017-04-14T01:22:56.267Z,0
2017-04-14T01:24:06.597Z,0
2017-04-14T01:25:16.934Z,0
2017-04-14T01:26:26.959Z,0
2017-04-14T01:27:36.978Z,0
2017-04-14T01:28:47.317Z,0
2017-04-14T01:29:57.350Z,0
2017-04-14T01:31:07.743Z,0
2017-04-14T01:32:18.078Z,0
2017-04-14T01:33:28.113Z,0
2017-04-14T01:34:38.493Z,0
2017-04-14T01:35:48.842Z,0
2017-04-14T01:36:59.188Z,0
2017-04-14T01:38:09.533Z,0
2017-04-14T01:39:19.562Z,0
2017-04-14T01:40:30.134Z,0
2017-04-14T01:41:40.472Z,0
2017-04-14T01:42:50.523Z,0
2017-04-14T01:44:00.850Z,0
2017-04-14T01:45:11.184Z,0
2017-04-14T01:46:21.522Z,0
2017-04-14T01:47:31.885Z,0
2017-04-14T01:48:42.222Z,0
2017-04-14T01:49:52.254Z,0
2017-04-14T01:51:02.587Z,0
2017-04-14T01:52:12.915Z,0
2017-04-14T01:53:22.938Z,0
2017-04-14T01:54:32.969Z,0
2017-04-14T01:55:43.306Z,0
2017-04-14T01:56:53.635Z,0
2017-04-14T01:58:03.650Z,0
2017-04-14T01:59:14.001Z,0
2017-04-14T02:00:24.034Z,0
2017-04-14T02:01:33.744Z,0
2017-04-14T02:02:44.076Z,0
2017-04-14T02:03:54.413Z,0
2017-04-14T02:05:04.750Z,0
2017-04-14T02:06:14.757Z,0
2017-04-14T02:07:25.095Z,0
2017-04-14T02:08:35.434Z,0
2017-04-14T02:09:45.768Z,0
2017-04-14T02:10:56.104Z,0
2017-04-14T02:12:06.429Z,0
2017-04-14T02:13:16.763Z,0
2017-04-14T02:14:26.789Z,0
2017-04-14T02:15:37.114Z,0
2017-04-14T02:16:47.448Z,0
2017-04-14T02:17:57.785Z,0
2017-04-14T02:19:08.130Z,0
2017-04-14T02:20:18.462Z,0
2017-04-14T02:21:29.084Z,0
2017-04-14T02:22:39.414Z,0
2017-04-14T02:23:49.752Z,0
2017-04-14T02:25:00.079Z,0
2017-04-14T02:26:10.420Z,0
2017-04-14T02:27:20.799Z,0
2017-04-14T02:28:30.817Z,0
2017-04-14T02:29:41.157Z,0
2017-04-14T02:30:51.173Z,0
2017-04-14T02:32:01.216Z,0
2017-04-14T02:33:11.240Z,0
2017-04-14T02:34:21.266Z,0
2017-04-14T02:35:31.285Z,0
2017-04-14T02:36:41.311Z,0
2017-04-14T02:37:51.640Z,0
2017-04-14T02:39:02.021Z,0
2017-04-14T02:40:12.092Z,0
2017-04-14T02:41:22.428Z,0
2017-04-14T02:42:32.755Z,0
2017-04-14T02:43:42.851Z,0
2017-04-14T02:44:53.184Z,0
2017-04-14T02:46:03.556Z,0
2017-04-14T02:47:13.888Z,0
2017-04-14T02:48:23.909Z,0
2017-04-14T02:49:34.245Z,0
2017-04-14T02:50:44.588Z,0
2017-04-14T02:51:54.924Z,0
2017-04-14T02:53:04.936Z,0
2017-04-14T02:54:15.275Z,0
2017-04-14T02:55:25.297Z,0
2017-04-14T02:56:35.312Z,0
2017-04-14T02:57:45.324Z,0
2017-04-14T02:58:55.651Z,0
2017-04-14T03:00:05.961Z,0
2017-04-14T03:01:16.333Z,0
2017-04-14T03:33:14.400Z,0
2017-04-14T03:34:24.732Z,0
2017-04-14T03:35:35.048Z,0
2017-04-14T03:36:45.053Z,0
2017-04-14T03:37:55.074Z,0
2017-04-14T03:39:05.094Z,0
2017-04-14T03:40:15.422Z,0
2017-04-14T03:41:25.757Z,0
2017-04-14T03:42:35.775Z,0
2017-04-14T03:43:45.803Z,0
2017-04-14T03:44:55.818Z,0
2017-04-14T03:46:05.533Z,0
2017-04-14T03:47:15.866Z,0
2017-04-14T03:48:25.893Z,0
2017-04-14T03:49:36.229Z,0
2017-04-14T03:50:46.556Z,0
2017-04-14T03:51:56.584Z,0
2017-04-14T03:53:06.904Z,0
2017-04-14T03:54:17.234Z,0
2017-04-14T03:55:27.574Z,0
2017-04-14T03:56:38.187Z,0
2017-04-14T03:57:48.518Z,0
2017-04-14T03:58:58.859Z,0
2017-04-14T04:00:09.191Z,0
2017-04-14T04:01:19.525Z,0
2017-04-14T04:02:29.558Z,0
2017-04-14T04:03:39.275Z,0
2017-04-14T04:04:49.298Z,0
2017-04-14T04:05:59.649Z,0
2017-04-14T04:07:09.681Z,0
2017-04-14T04:08:20.018Z,0
2017-04-14T04:09:29.735Z,0
2017-04-14T04:10:39.771Z,0
2017-04-14T04:11:50.117Z,0
2017-04-14T04:13:00.135Z,0
2017-04-14T04:14:10.196Z,0
2017-04-14T04:15:20.522Z,0
2017-04-14T04:16:30.235Z,0
2017-04-14T04:17:40.248Z,5
2017-04-14T04:18:50.579Z,5
2017-04-14T04:20:00.949Z,5
2017-04-14T04:21:10.983Z,5
2017-04-14T04:22:21.015Z,5
2017-04-14T04:23:31.043Z,5
2017-04-14T04:24:41.062Z,5
2017-04-14T04:25:51.080Z,5
2017-04-14T04:27:01.420Z,5
2017-04-14T04:28:11.439Z,5
2017-04-14T04:29:21.763Z,5
2017-04-14T04:30:31.472Z,10
2017-04-14T04:31:41.791Z,10
2017-04-14T04:32:51.817Z,10
2017-04-14T04:34:02.150Z,10
2017-04-14T04:35:12.503Z,10
2017-04-14T04:36:22.839Z,10
2017-04-14T04:37:32.856Z,10
2017-04-14T04:38:42.879Z,15
2017-04-14T04:39:52.903Z,15
2017-04-14T04:41:03.261Z,15
2017-04-14T04:42:13.632Z,15
2017-04-14T04:43:23.648Z,15
2017-04-14T04:44:33.671Z,20
2017-04-14T04:45:43.381Z,20
2017-04-14T04:46:53.716Z,20
2017-04-14T04:48:04.054Z,20
2017-04-14T04:49:14.404Z,20
2017-04-14T04:50:24.740Z,20
2017-04-14T04:51:35.063Z,25
2017-04-14T04:52:45.096Z,25
2017-04-14T04:53:55.435Z,30
2017-04-14T04:55:05.525Z,30
2017-04-14T04:56:15.880Z,30
2017-04-14T04:57:26.216Z,30
2017-04-14T04:58:36.585Z,30
2017-04-14T04:59:46.915Z,30
2017-04-14T05:00:57.306Z,30
2017-04-14T05:02:07.337Z,30
2017-04-14T05:03:17.679Z,35
2017-04-14T05:04:28.016Z,40
2017-04-14T05:05:38.039Z,40
2017-04-14T05:06:48.380Z,40
2017-04-14T05:07:58.412Z,45
2017-04-14T05:09:08.158Z,50
2017-04-14T05:10:18.185Z,55
2017-04-14T05:11:28.507Z,60
2017-04-14T05:12:38.846Z,65
2017-04-14T05:13:49.170Z,65
2017-04-14T05:14:59.490Z,70
2017-04-14T05:16:09.836Z,70
2017-04-14T05:17:19.871Z,70
2017-04-14T05:18:29.910Z,70
2017-04-14T05:19:40.276Z,75
2017-04-14T05:20:50.304Z,75
2017-04-14T05:22:00.647Z,80
2017-04-14T05:23:10.988Z,80
2017-04-14T05:24:21.071Z,85
2017-04-14T05:25:31.402Z,85
2017-04-14T05:26:41.464Z,85
2017-04-14T05:27:51.490Z,85
2017-04-14T05:29:01.572Z,90
2017-04-14T05:30:11.909Z,75
2017-04-14T05:31:21.922Z,70
2017-04-14T05:32:32.262Z,70
2017-04-14T05:33:42.276Z,65
2017-04-14T05:34:52.622Z,65
2017-04-14T05:36:02.956Z,70
2017-04-14T05:37:12.674Z,75
2017-04-14T05:38:22.702Z,70
2017-04-14T05:39:33.022Z,70
2017-04-14T05:40:43.051Z,70
2017-04-14T05:41:53.392Z,70
2017-04-14T05:43:03.108Z,65
2017-04-14T05:44:13.149Z,55
2017-04-14T05:45:23.489Z,55
2017-04-14T05:46:33.507Z,60
2017-04-14T05:47:43.848Z,65
2017-04-14T05:48:54.190Z,75
2017-04-14T05:50:04.598Z,80
2017-04-14T05:51:14.615Z,85
2017-04-14T05:52:24.957Z,85
2017-04-14T05:53:35.290Z,85
2017-04-14T05:54:45.315Z,85
2017-04-14T05:55:55.637Z,80
2017-04-14T05:57:05.659Z,85
2017-04-14T05:58:15.682Z,90
2017-04-14T05:59:26.019Z,90
2017-04-14T06:00:36.363Z,90
2017-04-14T06:01:46.377Z,95
2017-04-14T06:02:56.713Z,100
2017-04-14T06:04:07.092Z,105
2017-04-14T06:05:17.495Z,105
2017-04-14T06:06:27.835Z,110
2017-04-14T06:07:37.858Z,115
2017-04-14T06:08:48.201Z,115
2017-04-14T06:09:58.523Z,125
2017-04-14T06:11:08.865Z,130
2017-04-14T06:12:19.206Z,135
2017-04-14T06:13:29.536Z,140
2017-04-14T06:14:39.869Z,145
2017-04-14T06:15:50.198Z,150
2017-04-14T06:17:00.207Z,155
2017-04-14T06:18:10.226Z,155
2017-04-14T06:19:20.569Z,155
2017-04-14T06:20:30.899Z,165
2017-04-14T06:21:41.236Z,175
2017-04-14T06:22:51.274Z,165
2017-04-14T06:24:01.645Z,175
2017-04-14T06:25:11.661Z,180
2017-04-14T06:26:21.681Z,190
2017-04-14T06:27:31.703Z,190
2017-04-14T06:28:42.056Z,180
2017-04-14T06:29:52.381Z,180
2017-04-14T06:31:02.712Z,170
2017-04-14T06:32:13.050Z,175
2017-04-14T06:33:23.102Z,180
2017-04-14T06:34:33.129Z,210
2017-04-14T06:35:43.144Z,210
2017-04-14T06:36:53.523Z,225
2017-04-14T06:38:03.548Z,230
2017-04-14T06:39:13.581Z,240
2017-04-14T06:40:23.916Z,230
2017-04-14T06:41:34.270Z,250
2017-04-14T06:42:44.612Z,255
2017-04-14T06:43:54.974Z,250
2017-04-14T06:45:04.996Z,250
2017-04-14T06:46:15.341Z,250
2017-04-14T06:47:25.676Z,255
2017-04-14T06:48:35.694Z,275
2017-04-14T06:49:46.046Z,260
2017-04-14T06:50:56.388Z,270
2017-04-14T06:52:06.736Z,240
2017-04-14T06:53:17.078Z,235
2017-04-14T06:54:27.418Z,235
2017-04-14T06:55:37.445Z,230
2017-04-14T06:56:47.663Z,260
2017-04-14T06:57:57.402Z,240
2017-04-14T06:59:07.787Z,255
2017-04-14T07:00:17.502Z,230
2017-04-14T07:01:27.868Z,230
2017-04-14T07:02:37.590Z,250
2017-04-14T07:03:47.928Z,250
2017-04-14T07:04:57.939Z,265
2017-04-14T07:06:07.956Z,270
2017-04-14T07:07:17.972Z,275
2017-04-14T07:08:28.000Z,290
2017-04-14T07:09:38.331Z,290
2017-04-14T07:10:48.360Z,300
2017-04-14T07:11:58.382Z,285
2017-04-14T07:13:08.151Z,290
2017-04-14T07:14:18.495Z,295
2017-04-14T07:15:28.524Z,265
2017-04-14T07:16:38.876Z,260
2017-04-14T07:17:48.911Z,255
2017-04-14T07:18:59.253Z,255
2017-04-14T07:20:09.289Z,245
2017-04-14T07:21:19.317Z,260
2017-04-14T07:22:29.659Z,270
2017-04-14T07:23:39.715Z,285
2017-04-14T07:24:50.053Z,295
2017-04-14T07:26:00.143Z,265
2017-04-14T07:27:10.182Z,260
2017-04-14T07:28:20.197Z,270
2017-04-14T07:29:30.219Z,285
2017-04-14T07:30:40.247Z,290
2017-04-14T07:31:50.577Z,300
2017-04-14T07:33:01.148Z,295
2017-04-14T07:34:11.531Z,285
2017-04-14T07:35:21.871Z,300
2017-04-14T07:36:32.207Z,280
2017-04-14T07:37:42.220Z,285
2017-04-14T07:38:52.562Z,270
2017-04-14T07:40:02.590Z,270
2017-04-14T07:41:12.923Z,285
2017-04-14T07:42:22.943Z,285
2017-04-14T07:43:32.968Z,285
2017-04-14T07:44:43.321Z,295
2017-04-14T07:45:53.355Z,305
2017-04-14T07:47:03.064Z,300
2017-04-14T07:48:13.097Z,295
2017-04-14T07:49:23.438Z,290
2017-04-14T07:50:33.795Z,275
2017-04-14T07:51:44.137Z,275
2017-04-14T07:52:53.847Z,285
2017-04-14T07:54:04.186Z,290
2017-04-14T07:55:14.212Z,295
2017-04-14T07:56:24.569Z,310
2017-04-14T07:57:34.910Z,315
2017-04-14T07:58:45.283Z,300
2017-04-14T07:59:55.628Z,295
2017-04-14T08:01:05.651Z,300
2017-04-14T08:02:15.691Z,315
2017-04-14T08:03:26.051Z,300
2017-04-14T08:04:36.394Z,285
2017-04-14T08:05:46.752Z,300
2017-04-14T08:06:56.781Z,290
2017-04-14T08:08:07.154Z,285
2017-04-14T08:09:17.489Z,275
2017-04-14T08:10:27.835Z,285
2017-04-14T08:11:37.857Z,295
2017-04-14T08:12:48.188Z,305
2017-04-14T08:13:58.546Z,305
2017-04-14T08:15:08.895Z,310
2017-04-14T08:16:18.989Z,290
2017-04-14T08:17:29.017Z,295
2017-04-14T08:18:39.373Z,285
2017-04-14T08:19:49.397Z,275
2017-04-14T08:20:59.751Z,265
2017-04-14T08:22:09.473Z,225
2017-04-14T08:23:19.821Z,210
2017-04-14T08:24:30.190Z,210
2017-04-14T08:25:40.533Z,225
2017-04-14T08:26:50.570Z,235
2017-04-14T08:28:00.916Z,240
2017-04-14T08:29:10.967Z,290
2017-04-14T08:30:21.300Z,295
2017-04-14T08:31:31.682Z,295
2017-04-14T08:32:42.022Z,300
2017-04-14T08:33:52.376Z,310
2017-04-14T08:35:02.726Z,300
2017-04-14T08:36:13.076Z,305
2017-04-14T08:37:23.114Z,305
2017-04-14T08:38:33.463Z,310
2017-04-14T08:39:43.809Z,305
2017-04-14T08:40:53.841Z,300
2017-04-14T08:42:04.175Z,295
2017-04-14T08:43:14.519Z,280
2017-04-14T08:44:24.866Z,275
2017-04-14T08:45:35.191Z,270
2017-04-14T08:46:45.210Z,275
2017-04-14T08:47:55.801Z,275
2017-04-14T08:49:06.150Z,270
2017-04-14T08:50:16.488Z,260
2017-04-14T08:51:26.865Z,255
2017-04-14T08:52:37.232Z,255
2017-04-14T08:53:47.609Z,265
2017-04-14T08:54:57.642Z,260
2017-04-14T08:56:07.983Z,255
2017-04-14T08:57:18.329Z,255
2017-04-14T08:58:28.660Z,255
2017-04-14T08:59:39.016Z,255
2017-04-14T09:00:49.039Z,250
2017-04-14T09:01:59.115Z,245
2017-04-14T09:03:09.438Z,250
2017-04-14T09:04:19.478Z,260
2017-04-14T09:05:29.830Z,260
2017-04-14T09:06:40.171Z,260
2017-04-14T09:07:50.190Z,245
2017-04-14T09:09:00.526Z,260
2017-04-14T09:10:10.549Z,265
2017-04-14T09:11:20.890Z,255
2017-04-14T09:12:30.912Z,260
2017-04-14T09:13:41.273Z,265
2017-04-14T09:14:51.615Z,270
2017-04-14T09:16:01.950Z,280
2017-04-14T09:17:12.303Z,260
2017-04-14T09:18:22.355Z,265
2017-04-14T09:19:32.696Z,265
2017-04-14T09:20:43.099Z,255
2017-04-14T09:21:53.451Z,230
2017-04-14T09:23:03.789Z,210
2017-04-14T09:24:13.829Z,295
2017-04-14T09:25:23.863Z,290
2017-04-14T09:26:34.202Z,260
2017-04-14T09:27:44.539Z,240
2017-04-14T09:28:54.877Z,265
2017-04-14T09:30:05.217Z,275
2017-04-14T09:31:15.228Z,275
2017-04-14T09:32:25.556Z,275
2017-04-14T09:33:35.900Z,255
2017-04-14T09:34:45.605Z,285
2017-04-14T09:35:55.641Z,245
2017-04-14T09:37:05.678Z,210
2017-04-14T09:38:16.013Z,205
2017-04-14T09:39:26.446Z,250
2017-04-14T09:40:36.487Z,255
2017-04-14T09:41:46.841Z,205
2017-04-14T09:42:57.197Z,200
2017-04-14T09:44:07.229Z,200
2017-04-14T09:45:17.259Z,205
2017-04-14T09:46:27.335Z,220
2017-04-14T09:47:37.679Z,215
2017-04-14T09:48:47.711Z,215
2017-04-14T09:49:58.053Z,215
2017-04-14T09:51:08.396Z,210
2017-04-14T09:52:18.729Z,210
2017-04-14T09:53:29.082Z,215
2017-04-14T09:54:39.419Z,215
2017-04-14T09:55:49.744Z,215
2017-04-14T09:56:59.778Z,215
2017-04-14T09:58:10.109Z,215
2017-04-14T09:59:20.152Z,215
2017-04-14T10:00:30.192Z,225
2017-04-14T10:01:40.771Z,230
2017-04-14T10:02:51.111Z,235
2017-04-14T10:04:01.154Z,240
2017-04-14T10:05:11.194Z,240
2017-04-14T10:06:21.557Z,245
2017-04-14T10:07:31.577Z,250
2017-04-14T10:08:41.923Z,245
2017-04-14T10:09:52.262Z,240
2017-04-14T10:11:02.602Z,235
2017-04-14T10:12:12.314Z,240
2017-04-14T10:13:22.660Z,240
2017-04-14T10:14:32.689Z,245
2017-04-14T10:15:42.730Z,255
2017-04-14T10:16:53.065Z,265
2017-04-14T10:18:03.412Z,260
2017-04-14T10:19:13.440Z,235
2017-04-14T10:20:23.796Z,205
2017-04-14T10:21:34.143Z,180
2017-04-14T10:22:44.166Z,150
2017-04-14T10:23:54.204Z,140
2017-04-14T10:25:04.242Z,125
2017-04-14T10:26:14.267Z,125
2017-04-14T10:27:24.599Z,145
2017-04-14T10:28:34.948Z,150
2017-04-14T10:29:45.006Z,180
2017-04-14T10:30:55.577Z,175
2017-04-14T10:32:05.308Z,195
2017-04-14T10:33:15.647Z,240
2017-04-14T10:34:25.987Z,280
2017-04-14T10:35:36.320Z,300
2017-04-14T10:36:46.674Z,310
2017-04-14T10:37:57.041Z,310
2017-04-14T10:39:07.384Z,310
2017-04-14T10:40:17.731Z,305
2017-04-14T10:41:28.066Z,305
2017-04-14T10:42:38.101Z,355
2017-04-14T10:43:48.442Z,285
2017-04-14T10:44:58.818Z,275
2017-04-14T10:46:09.156Z,275
2017-04-14T10:47:19.190Z,280
2017-04-14T10:48:29.547Z,275
2017-04-14T10:49:39.595Z,275
2017-04-14T10:50:49.611Z,275
2017-04-14T10:51:59.657Z,270
2017-04-14T10:53:10.014Z,265
2017-04-14T10:54:20.362Z,265
2017-04-14T10:55:30.707Z,260
2017-04-14T10:56:40.781Z,260
2017-04-14T10:57:50.820Z,255
2017-04-14T10:59:01.160Z,245
2017-04-14T11:00:11.195Z,235
2017-04-14T11:01:21.231Z,230
2017-04-14T11:02:31.576Z,215
2017-04-14T11:03:41.607Z,205
2017-04-14T11:04:51.976Z,200
2017-04-14T11:06:02.319Z,200
2017-04-14T11:07:12.660Z,215
2017-04-14T11:08:23.006Z,200
2017-04-14T11:09:32.744Z,195
2017-04-14T11:10:42.771Z,175
2017-04-14T11:11:53.132Z,175
2017-04-14T11:13:03.458Z,170
2017-04-14T11:14:13.803Z,170
2017-04-14T11:15:23.822Z,160
2017-04-14T11:16:34.161Z,165
2017-04-14T11:17:43.881Z,160
2017-04-14T11:18:54.217Z,170
2017-04-14T11:20:03.955Z,185
2017-04-14T11:21:14.295Z,205
2017-04-14T11:22:24.638Z,235
2017-04-14T11:23:34.984Z,320
2017-04-14T11:24:45.334Z,345
2017-04-14T11:25:55.693Z,300
2017-04-14T11:27:06.024Z,290
2017-04-14T11:28:16.369Z,280
2017-04-14T11:29:26.729Z,275
2017-04-14T11:30:37.061Z,280
2017-04-14T11:31:47.114Z,290
2017-04-14T11:32:57.454Z,300
2017-04-14T11:34:07.491Z,295
2017-04-14T11:35:17.521Z,290
2017-04-14T11:36:27.897Z,285
2017-04-14T11:37:38.237Z,290
2017-04-14T11:38:48.660Z,290
2017-04-14T11:39:58.694Z,285
2017-04-14T11:41:08.730Z,280
2017-04-14T11:42:19.071Z,275
2017-04-14T11:43:29.405Z,270
2017-04-14T11:44:39.453Z,270
2017-04-14T11:45:49.793Z,270
2017-04-14T11:47:00.134Z,275
2017-04-14T11:48:10.167Z,270
2017-04-14T11:49:20.207Z,265
2017-04-14T11:50:30.553Z,260
2017-04-14T11:51:40.882Z,255
2017-04-14T11:52:50.919Z,250
2017-04-14T11:54:00.953Z,240
2017-04-14T11:55:11.290Z,235
2017-04-14T11:56:21.315Z,230
2017-04-14T11:57:31.660Z,230
2017-04-14T11:58:41.681Z,240
2017-04-14T11:59:52.039Z,245
2017-04-14T12:01:02.400Z,250
2017-04-14T12:02:12.745Z,255
2017-04-14T12:03:23.093Z,255
2017-04-14T12:04:33.440Z,250
2017-04-14T12:05:43.805Z,240
2017-04-14T12:06:54.155Z,235
2017-04-14T12:08:04.511Z,230
2017-04-14T12:09:14.852Z,225
2017-04-14T12:10:24.903Z,210
2017-04-14T12:11:35.234Z,200
2017-04-14T12:12:45.277Z,195
2017-04-14T12:13:55.628Z,195
2017-04-14T12:15:05.375Z,190
2017-04-14T12:16:15.717Z,185
2017-04-14T12:17:26.079Z,180
2017-04-14T12:18:36.415Z,185
2017-04-14T12:19:46.436Z,175
2017-04-14T12:20:56.775Z,180
2017-04-14T12:22:06.801Z,190
2017-04-14T12:23:16.523Z,195
2017-04-14T12:24:26.893Z,205
2017-04-14T12:25:36.923Z,205
2017-04-14T12:26:46.953Z,200
2017-04-14T12:27:57.284Z,200
2017-04-14T12:29:07.331Z,200
2017-04-14T12:30:17.677Z,200
2017-04-14T12:31:27.719Z,200
2017-04-14T12:32:38.057Z,200
2017-04-14T12:33:48.109Z,200
2017-04-14T12:34:58.449Z,195
2017-04-14T12:36:08.505Z,190
2017-04-14T12:37:18.538Z,185
2017-04-14T12:38:28.587Z,180
2017-04-14T12:39:38.626Z,185
2017-04-14T12:40:48.964Z,190
2017-04-14T12:41:59.351Z,200
2017-04-14T12:43:09.692Z,205
2017-04-14T12:44:19.709Z,205
2017-04-14T12:45:30.075Z,205
2017-04-14T12:46:40.436Z,200
2017-04-14T12:47:50.456Z,195
2017-04-14T12:49:00.804Z,185
2017-04-14T12:50:11.150Z,175
2017-04-14T12:51:21.494Z,170
2017-04-14T12:52:31.827Z,150
2017-04-14T12:53:42.170Z,130
2017-04-14T12:54:51.882Z,115
2017-04-14T12:56:02.244Z,100
2017-04-14T12:57:12.298Z,85
2017-04-14T12:58:22.027Z,85
2017-04-14T12:59:32.371Z,75
2017-04-14T13:00:42.700Z,75
2017-04-14T13:01:53.040Z,70
2017-04-14T13:03:03.061Z,65
2017-04-14T13:04:13.103Z,65
2017-04-14T13:05:23.460Z,60
2017-04-14T13:06:33.494Z,60
2017-04-14T13:07:43.835Z,55
2017-04-14T13:08:53.871Z,55
2017-04-14T13:10:04.211Z,50
2017-04-14T13:11:13.930Z,50
2017-04-14T13:12:24.285Z,50
2017-04-14T13:13:34.656Z,45
2017-04-14T13:14:44.689Z,45
2017-04-14T13:15:54.741Z,45
2017-04-14T13:17:04.783Z,45
2017-04-14T13:18:15.139Z,45
2017-04-14T13:19:25.481Z,50
2017-04-14T13:20:35.827Z,45
2017-04-14T13:21:46.171Z,45
2017-04-14T13:22:56.220Z,45
2017-04-14T13:24:06.240Z,45
2017-04-14T13:25:16.594Z,45
2017-04-14T13:26:26.975Z,45
2017-04-14T13:27:37.347Z,45
2017-04-14T13:28:47.704Z,40
2017-04-14T13:29:57.741Z,40
2017-04-14T13:31:07.467Z,40
2017-04-14T13:32:17.492Z,40
2017-04-14T13:33:27.829Z,40
2017-04-14T13:34:37.859Z,40
2017-04-14T13:35:48.205Z,45
2017-04-14T13:36:58.566Z,45
2017-04-14T13:38:08.907Z,45
2017-04-14T13:39:18.937Z,50
2017-04-14T13:40:29.325Z,50
2017-04-14T13:41:39.693Z,50
2017-04-14T13:42:50.058Z,50
2017-04-14T13:44:00.439Z,50
2017-04-14T13:45:10.778Z,50
2017-04-14T13:46:21.118Z,50
2017-04-14T13:47:31.456Z,50
2017-04-14T13:48:41.834Z,50
2017-04-14T13:49:51.859Z,50
2017-04-14T13:51:01.916Z,50
2017-04-14T13:52:12.269Z,55
2017-04-14T13:53:22.087Z,55
2017-04-14T13:54:32.428Z,60
2017-04-14T13:55:42.154Z,60
2017-04-14T13:56:55.372Z,65
2017-04-14T13:58:05.751Z,70
2017-04-14T13:59:15.786Z,75
2017-04-14T14:00:25.855Z,80
2017-04-14T14:01:36.211Z,85
2017-04-14T14:02:46.574Z,90
2017-04-14T14:03:56.634Z,100
2017-04-14T14:05:06.407Z,105
2017-04-14T14:06:16.754Z,105
2017-04-14T14:07:27.103Z,105
2017-04-14T14:08:37.493Z,105
2017-04-14T14:09:47.835Z,105
2017-04-14T14:10:58.188Z,110
2017-04-14T14:12:08.546Z,110
2017-04-14T14:13:19.146Z,105
2017-04-14T14:14:29.486Z,105
2017-04-14T14:15:39.810Z,100
2017-04-14T14:16:50.139Z,110
2017-04-14T14:18:00.488Z,110
2017-04-14T14:19:10.838Z,150
2017-04-14T14:20:21.194Z,115
2017-04-14T14:21:31.541Z,115
2017-04-14T14:22:41.891Z,115
2017-04-14T14:23:52.241Z,115
2017-04-14T14:25:02.591Z,115
2017-04-14T14:26:12.642Z,115
2017-04-14T14:27:22.985Z,115
2017-04-14T14:28:33.338Z,110
2017-04-14T14:29:42.748Z,105
2017-04-14T14:30:52.781Z,100
2017-04-14T14:32:03.147Z,95
2017-04-14T14:33:13.175Z,85
2017-04-14T14:34:23.210Z,80
2017-04-14T14:35:33.562Z,70
2017-04-14T14:36:43.617Z,60
2017-04-14T14:37:53.633Z,55
2017-04-14T14:39:03.355Z,50
2017-04-14T14:40:13.385Z,45
2017-04-14T14:41:23.731Z,45
2017-04-14T14:42:33.770Z,40
2017-04-14T14:43:43.796Z,40
2017-04-14T14:44:54.134Z,35
2017-04-14T14:46:04.148Z,30
2017-04-14T14:47:14.190Z,30
2017-04-14T14:48:24.548Z,25
2017-04-14T14:49:34.874Z,25
2017-04-14T14:50:45.212Z,25
2017-04-14T14:51:54.971Z,20
2017-04-14T14:53:05.308Z,20
2017-04-14T14:54:15.344Z,20
2017-04-14T14:55:25.402Z,20
2017-04-14T14:56:34.809Z,20
2017-04-14T14:57:45.157Z,20
2017-04-14T14:58:54.576Z,20
2017-04-14T15:00:04.928Z,20
2017-04-14T15:01:14.053Z,20
2017-04-14T15:02:24.383Z,20
2017-04-14T15:03:34.415Z,20
2017-04-14T15:04:44.765Z,25
2017-04-14T15:05:55.112Z,25
2017-04-14T15:07:05.498Z,25
2017-04-14T15:08:15.854Z,30
2017-04-14T15:09:25.573Z,30
2017-04-14T15:10:35.648Z,35
2017-04-14T15:11:45.995Z,35
2017-04-14T15:12:56.349Z,40
2017-04-14T15:14:06.375Z,40
2017-04-14T15:15:16.431Z,40
2017-04-14T15:16:26.777Z,45
2017-04-14T15:17:37.114Z,45
2017-04-14T15:18:47.457Z,45
2017-04-14T15:19:57.489Z,50
2017-04-14T15:21:07.859Z,55
2017-04-14T15:22:17.927Z,60
2017-04-14T15:23:27.970Z,60
2017-04-14T15:24:38.345Z,60
2017-04-14T15:25:48.693Z,60
2017-04-14T15:26:59.037Z,60
2017-04-14T15:28:09.405Z,55
2017-04-14T15:29:19.744Z,50
2017-04-14T15:30:30.083Z,45
2017-04-14T15:31:40.446Z,45
2017-04-14T15:32:50.803Z,40
2017-04-14T15:34:00.859Z,40
2017-04-14T15:35:11.271Z,40
2017-04-14T15:36:21.303Z,40
2017-04-14T15:37:31.325Z,35
2017-04-14T15:38:41.682Z,35
2017-04-14T15:39:52.033Z,30
2017-04-14T15:41:02.374Z,30
2017-04-14T15:42:12.091Z,30
2017-04-14T15:43:22.140Z,30
2017-04-14T15:44:32.164Z,30
2017-04-14T15:45:42.501Z,30
2017-04-14T15:46:52.547Z,30
2017-04-14T15:48:02.886Z,30
2017-04-14T15:49:13.224Z,35
2017-04-14T15:50:23.573Z,35
2017-04-14T15:51:33.920Z,35
2017-04-14T15:52:44.276Z,40
2017-04-14T15:53:54.628Z,40
2017-04-14T15:55:04.974Z,40
2017-04-14T15:56:15.317Z,45
2017-04-14T15:57:25.345Z,50
2017-04-14T15:58:35.716Z,55
2017-04-14T15:59:46.062Z,60
2017-04-14T16:00:56.414Z,80
2017-04-14T16:02:06.763Z,95
2017-04-14T16:03:17.125Z,110
2017-04-14T16:04:27.199Z,125
2017-04-14T16:05:37.545Z,135
2017-04-14T16:06:47.882Z,140
2017-04-14T16:07:58.221Z,125
2017-04-14T16:09:08.610Z,105
2017-04-14T16:10:18.650Z,95
2017-04-14T16:11:28.997Z,85
2017-04-14T16:12:39.332Z,80
2017-04-14T16:13:49.694Z,75
2017-04-14T16:15:00.044Z,80
2017-04-14T16:16:10.431Z,70
2017-04-14T16:17:20.776Z,65
2017-04-14T16:18:31.126Z,55
2017-04-14T16:19:41.451Z,50
2017-04-14T16:20:51.187Z,50
2017-04-14T16:22:01.206Z,50
2017-04-14T16:23:11.262Z,55
2017-04-14T16:24:21.634Z,60
2017-04-14T16:25:31.982Z,70
2017-04-14T16:26:42.321Z,70
2017-04-14T16:27:52.349Z,65
2017-04-14T16:29:02.735Z,60
2017-04-14T16:30:13.072Z,55
2017-04-14T16:31:22.789Z,50
2017-04-14T16:32:32.497Z,55
2017-04-14T16:33:42.211Z,65
2017-04-14T16:34:52.260Z,75
2017-04-14T16:36:02.610Z,75
2017-04-14T16:37:12.972Z,85
2017-04-14T16:38:23.025Z,80
2017-04-14T16:39:33.086Z,80
2017-04-14T16:40:42.807Z,75
2017-04-14T16:41:53.143Z,75
2017-04-14T16:43:03.495Z,75
2017-04-14T16:44:13.822Z,75
2017-04-14T16:45:24.158Z,65
2017-04-14T16:46:34.530Z,60
2017-04-14T16:47:44.619Z,55
2017-04-14T16:48:54.345Z,60
2017-04-14T16:50:04.702Z,55
2017-04-14T16:51:14.102Z,50
2017-04-14T16:52:24.450Z,50
2017-04-14T16:53:34.852Z,45
2017-04-14T16:54:45.222Z,40
2017-04-14T16:55:55.249Z,40
2017-04-14T16:57:05.600Z,35
2017-04-14T16:58:15.643Z,35
2017-04-14T16:59:25.671Z,35
2017-04-14T17:00:36.011Z,35
2017-04-14T17:01:46.352Z,35
2017-04-14T17:02:56.716Z,35
2017-04-14T17:04:07.060Z,35
2017-04-14T17:05:17.095Z,35